This is the latest recevied weather packets stored in our database for station/object EA7RX-4. If no packets are shown the sender has not sent any weather packets the latest 10 day(s).
| Time | Temp. | Humidity | Pressure | Rain* | Wind** | Luminosity | Snow |
|---|---|---|---|---|---|---|---|
| 1787575803 | 23.89° C | 37% | 1014 hPa | 0 mm | - | 1029 W/m² | - |
| 1787575203 | 25° C | 36% | 1014.2 hPa | 0 mm | - | 1001 W/m² | - |
| 1787574603 | 24.44° C | 39% | 1014 hPa | 0 mm | - | 960 W/m² | - |
| 1787574003 | 24.44° C | 38% | 1013.9 hPa | 0 mm | - | 998 W/m² | - |
| 1787573403 | 24.44° C | 39% | 1014.1 hPa | 0 mm | - | 811 W/m² | - |
| 1787572803 | 24.44° C | 39% | 1014.3 hPa | 0 mm | - | 945 W/m² | - |
| 1787572203 | 23.89° C | 38% | 1014.6 hPa | 0 mm | - | 397 W/m² | - |
| 1787571603 | 23.33° C | 39% | 1014.5 hPa | 0 mm | - | 902 W/m² | - |
| 1787571003 | 22.78° C | 39% | 1014.5 hPa | 0 mm | - | 275 W/m² | - |
| 1787570403 | 22.22° C | 42% | 1014.6 hPa | 0 mm | - | 200 W/m² | - |
| 1787569803 | 23.33° C | 41% | 1014.4 hPa | 0 mm | - | 970 W/m² | - |
| 1787569203 | 23.33° C | 41% | 1014.8 hPa | 0 mm | - | 196 W/m² | - |
| 1787568603 | 23.33° C | 42% | 1014.8 hPa | 0 mm | - | 568 W/m² | - |
| 1787568003 | 23.33° C | 40% | 1014.6 hPa | 0 mm | - | 844 W/m² | - |
| 1787567403 | 22.22° C | 43% | 1014.6 hPa | 0 mm | - | 816 W/m² | - |
| 1787566803 | 22.22° C | 45% | 1014.9 hPa | 0 mm | - | 853 W/m² | - |
| 1787566203 | 23.33° C | 43% | 1014.5 hPa | 0 mm | - | 590 W/m² | - |
| 1787565603 | 22.22° C | 46% | 1014.6 hPa | 0 mm | - | 791 W/m² | - |
| 1787565003 | 22.22° C | 47% | 1014.4 hPa | 0 mm | - | 697 W/m² | - |
| 1787564403 | 22.78° C | 45% | 1015 hPa | 0 mm | - | 670 W/m² | - |
| 1787563803 | 21.11° C | 49% | 1014.4 hPa | 0 mm | - | 640 W/m² | - |
| 1787563203 | 21.67° C | 50% | 1014.5 hPa | 0 mm | - | 614 W/m² | - |
| 1787562603 | 21.11° C | 51% | 1015 hPa | 0 mm | - | 582 W/m² | - |
| 1787562003 | 20.56° C | 51% | 1014.8 hPa | 0 mm | - | 546 W/m² | - |
| 1787561403 | 21.11° C | 50% | 1014.9 hPa | 0 mm | - | 526 W/m² | - |
* Rain latest hour (hover to see other rain measurements)
** Current wind speed in m/s (hover to see current wind gust speed)